createdAt,value
2019-05-13T00:00:09.139Z,8.83
2019-05-13T00:01:09.126Z,8.73
2019-05-13T00:02:09.100Z,8.78
2019-05-13T00:03:09.083Z,8.75
2019-05-13T00:04:09.074Z,8.75
2019-05-13T00:05:09.081Z,8.75
2019-05-13T00:06:09.082Z,8.68
2019-05-13T00:07:09.052Z,8.73
2019-05-13T00:08:09.039Z,8.76
2019-05-13T00:09:09.015Z,8.66
2019-05-13T00:10:09.003Z,8.63
2019-05-13T00:11:09.014Z,8.66
2019-05-13T00:12:09.006Z,8.60
2019-05-13T00:13:08.977Z,8.62
2019-05-13T00:14:08.962Z,8.53
2019-05-13T00:15:08.973Z,8.66
2019-05-13T00:16:08.960Z,8.65
2019-05-13T00:17:08.950Z,8.60
2019-05-13T00:18:08.935Z,8.55
2019-05-13T00:19:08.923Z,8.54
2019-05-13T00:20:08.905Z,8.50
2019-05-13T00:21:08.906Z,8.39
2019-05-13T00:22:08.886Z,8.40
2019-05-13T00:23:08.866Z,8.39
2019-05-13T00:24:08.849Z,8.35
2019-05-13T00:25:08.861Z,8.28
2019-05-13T00:26:08.856Z,8.21
2019-05-13T00:27:08.826Z,8.21
2019-05-13T00:28:08.812Z,8.22
2019-05-13T00:29:08.809Z,8.20
2019-05-13T00:30:08.798Z,8.29
2019-05-13T00:31:08.790Z,8.25
2019-05-13T00:32:08.772Z,8.21
2019-05-13T00:33:08.751Z,8.26
2019-05-13T00:34:08.738Z,8.22
2019-05-13T00:35:08.729Z,8.20
2019-05-13T00:36:08.728Z,8.21
2019-05-13T00:37:11.579Z,8.21
2019-05-13T00:38:08.712Z,8.22
2019-05-13T00:39:08.698Z,8.17
2019-05-13T00:40:08.688Z,8.12
2019-05-13T00:41:08.671Z,8.18
2019-05-13T00:42:08.654Z,8.21
2019-05-13T00:43:08.648Z,8.12
2019-05-13T00:44:08.643Z,8.15
2019-05-13T00:45:09.513Z,8.14
2019-05-13T00:46:08.619Z,8.10
2019-05-13T00:47:08.597Z,8.18
2019-05-13T00:48:08.595Z,8.08
2019-05-13T00:49:08.586Z,8.08
2019-05-13T00:50:08.589Z,8.15
2019-05-13T00:51:08.581Z,8.10
2019-05-13T00:52:08.569Z,8.14
2019-05-13T00:53:08.539Z,8.10
2019-05-13T00:54:08.554Z,8.02
2019-05-13T00:55:10.161Z,8.10
2019-05-13T00:56:08.515Z,7.97
2019-05-13T00:57:08.498Z,7.94
2019-05-13T00:58:08.484Z,8.03
2019-05-13T00:59:08.484Z,7.99
2019-05-13T01:00:08.460Z,7.96
2019-05-13T01:01:08.487Z,7.99
2019-05-13T01:02:08.452Z,7.94
2019-05-13T01:03:08.441Z,8.00
2019-05-13T01:04:08.428Z,7.92
2019-05-13T01:05:08.409Z,7.97
2019-05-13T01:06:08.417Z,7.89
2019-05-13T01:07:21.984Z,7.93
2019-05-13T01:08:09.382Z,7.93
2019-05-13T01:09:08.385Z,7.93
2019-05-13T01:10:08.365Z,7.87
2019-05-13T01:11:08.369Z,7.85
2019-05-13T01:12:08.352Z,7.90
2019-05-13T01:13:08.322Z,7.93
2019-05-13T01:14:08.308Z,7.89
2019-05-13T01:15:08.302Z,7.93
2019-05-13T01:16:08.291Z,7.81
2019-05-13T01:17:08.276Z,7.82
2019-05-13T01:18:08.263Z,7.82
2019-05-13T01:19:08.259Z,7.78
2019-05-13T01:20:08.245Z,7.74
2019-05-13T01:21:08.245Z,7.75
2019-05-13T01:22:08.239Z,7.75
2019-05-13T01:23:08.213Z,7.74
2019-05-13T01:24:08.202Z,7.67
2019-05-13T01:25:08.179Z,7.69
2019-05-13T01:26:08.180Z,7.60
2019-05-13T01:27:08.171Z,7.67
2019-05-13T01:28:08.152Z,7.52
2019-05-13T01:29:08.153Z,7.53
2019-05-13T01:30:08.141Z,7.52
2019-05-13T01:31:08.127Z,7.56
2019-05-13T01:32:08.121Z,7.53
2019-05-13T01:33:08.107Z,7.56
2019-05-13T01:34:08.105Z,7.60
2019-05-13T01:35:08.091Z,7.53
2019-05-13T01:36:08.077Z,7.55
2019-05-13T01:37:08.056Z,7.49
2019-05-13T01:38:08.040Z,7.49
2019-05-13T01:39:08.035Z,7.49
2019-05-13T01:40:08.014Z,7.34
2019-05-13T01:41:08.020Z,7.38
2019-05-13T01:42:08.013Z,7.32
2019-05-13T01:43:08.008Z,7.29
2019-05-13T01:44:07.990Z,7.24
2019-05-13T01:45:07.973Z,7.26
2019-05-13T01:46:07.976Z,7.23
2019-05-13T01:47:07.963Z,7.20
2019-05-13T01:48:08.207Z,7.24
2019-05-13T01:49:07.920Z,7.24
2019-05-13T01:50:07.914Z,7.23
2019-05-13T01:51:07.897Z,7.23
2019-05-13T01:52:07.903Z,7.27
2019-05-13T01:53:07.885Z,7.23
2019-05-13T01:54:07.876Z,7.24
2019-05-13T01:55:07.859Z,7.24
2019-05-13T01:56:07.849Z,7.26
2019-05-13T01:57:07.845Z,7.20
2019-05-13T01:58:07.814Z,7.26
2019-05-13T01:59:07.811Z,7.22
2019-05-13T02:00:07.810Z,7.31
2019-05-13T02:01:07.793Z,7.22
2019-05-13T02:02:07.807Z,7.16
2019-05-13T02:03:07.761Z,7.17
2019-05-13T02:04:07.753Z,7.19
2019-05-13T02:05:07.754Z,7.19
2019-05-13T02:06:07.757Z,7.15
2019-05-13T02:07:07.745Z,7.09
2019-05-13T02:08:07.715Z,7.12
2019-05-13T02:09:07.704Z,7.04
2019-05-13T02:10:07.702Z,7.01
2019-05-13T02:11:07.678Z,7.01
2019-05-13T02:12:07.681Z,7.02
2019-05-13T02:13:07.674Z,6.99
2019-05-13T02:14:07.649Z,6.97
2019-05-13T02:15:07.636Z,6.95
2019-05-13T02:16:07.625Z,6.98
2019-05-13T02:17:07.625Z,7.02
2019-05-13T02:18:07.599Z,6.99
2019-05-13T02:19:07.596Z,6.95
2019-05-13T02:20:07.603Z,6.91
2019-05-13T02:21:07.569Z,6.91
2019-05-13T02:22:07.568Z,6.84
2019-05-13T02:23:07.539Z,6.89
2019-05-13T02:24:07.528Z,6.95
2019-05-13T02:25:07.524Z,6.91
2019-05-13T02:26:07.516Z,6.97
2019-05-13T02:27:07.530Z,6.84
2019-05-13T02:28:10.163Z,6.89
2019-05-13T02:29:07.481Z,6.89
2019-05-13T02:30:07.471Z,6.95
2019-05-13T02:31:07.456Z,6.97
2019-05-13T02:32:07.448Z,6.94
2019-05-13T02:33:07.460Z,6.80
2019-05-13T02:34:07.436Z,6.81
2019-05-13T02:35:07.412Z,6.81
2019-05-13T02:36:07.409Z,6.76
2019-05-13T02:37:07.406Z,6.87
2019-05-13T02:38:19.616Z,6.79
2019-05-13T02:39:08.390Z,6.83
2019-05-13T02:40:07.379Z,6.77
2019-05-13T02:41:07.339Z,6.83
2019-05-13T02:42:07.334Z,6.83
2019-05-13T02:43:07.339Z,6.79
2019-05-13T02:44:07.329Z,6.65
2019-05-13T02:45:07.307Z,6.69
2019-05-13T02:46:07.301Z,6.69
2019-05-13T02:47:07.293Z,6.71
2019-05-13T02:48:07.295Z,6.68
2019-05-13T02:49:07.268Z,6.71
2019-05-13T02:50:07.247Z,6.63
2019-05-13T02:51:07.246Z,6.61
2019-05-13T02:52:07.245Z,6.56
2019-05-13T02:53:07.260Z,6.61
2019-05-13T02:54:07.212Z,6.53
2019-05-13T02:55:07.200Z,6.54
2019-05-13T02:56:07.181Z,6.61
2019-05-13T02:57:07.184Z,6.58
2019-05-13T02:58:07.183Z,6.56
2019-05-13T02:59:07.144Z,6.58
2019-05-13T03:00:07.133Z,6.59
2019-05-13T03:01:07.138Z,6.61
2019-05-13T03:02:07.128Z,6.61
2019-05-13T03:03:07.121Z,6.50
2019-05-13T03:04:07.103Z,6.47
2019-05-13T03:05:07.088Z,6.46
2019-05-13T03:06:07.092Z,6.48
2019-05-13T03:07:07.067Z,6.53
2019-05-13T03:08:07.071Z,6.47
2019-05-13T03:09:07.037Z,6.47
2019-05-13T03:10:07.035Z,6.48
2019-05-13T03:11:07.024Z,6.51
2019-05-13T03:12:07.020Z,6.43
2019-05-13T03:13:07.019Z,6.51
2019-05-13T03:14:06.999Z,6.41
2019-05-13T03:15:06.990Z,6.50
2019-05-13T03:16:06.971Z,6.46
2019-05-13T03:17:06.949Z,6.46
2019-05-13T03:18:06.960Z,6.43
2019-05-13T03:19:06.924Z,6.41
2019-05-13T03:20:06.931Z,6.44
2019-05-13T03:21:06.908Z,6.48
2019-05-13T03:22:06.898Z,6.43
2019-05-13T03:23:06.904Z,6.50
2019-05-13T03:24:06.897Z,6.48
2019-05-13T03:25:06.873Z,6.46
2019-05-13T03:26:06.867Z,6.43
2019-05-13T03:27:06.844Z,6.48
2019-05-13T03:28:06.877Z,6.51
2019-05-13T03:29:06.817Z,6.48
2019-05-13T03:30:06.804Z,6.50
2019-05-13T03:31:07.956Z,6.44
2019-05-13T03:32:07.639Z,6.50
2019-05-13T03:33:10.732Z,6.48
2019-05-13T03:34:08.036Z,6.48
2019-05-13T03:35:08.329Z,6.44
2019-05-13T03:36:08.358Z,6.44
2019-05-13T03:37:08.022Z,6.59
2019-05-13T03:38:06.734Z,6.50
2019-05-13T03:39:11.096Z,6.58
2019-05-13T03:40:07.706Z,6.65
2019-05-13T03:41:06.687Z,6.58
2019-05-13T03:42:06.674Z,6.62
2019-05-13T03:43:06.677Z,6.63
2019-05-13T03:44:06.653Z,6.58
2019-05-13T03:45:06.657Z,6.59
2019-05-13T03:46:06.650Z,6.63
2019-05-13T03:47:06.633Z,6.69
2019-05-13T03:48:06.632Z,6.71
2019-05-13T03:49:06.608Z,6.73
2019-05-13T03:50:06.601Z,6.69
2019-05-13T03:51:06.584Z,6.81
2019-05-13T03:52:06.563Z,6.84
2019-05-13T03:53:06.574Z,6.81
2019-05-13T03:54:06.572Z,6.94
2019-05-13T03:55:06.548Z,6.95
2019-05-13T03:56:06.524Z,6.99
2019-05-13T03:57:06.516Z,7.07
2019-05-13T03:58:06.507Z,7.12
2019-05-13T03:59:06.528Z,7.17
2019-05-13T04:00:06.488Z,7.31
2019-05-13T04:01:06.460Z,7.45
2019-05-13T04:02:06.464Z,7.53
2019-05-13T04:03:06.446Z,7.66
2019-05-13T04:04:06.453Z,7.55
2019-05-13T04:05:06.441Z,7.50
2019-05-13T04:06:06.425Z,7.50
2019-05-13T04:07:06.407Z,7.74
2019-05-13T04:08:06.392Z,7.87
2019-05-13T04:09:20.514Z,8.11
2019-05-13T04:10:07.375Z,8.22
2019-05-13T04:11:06.369Z,8.42
2019-05-13T04:12:06.366Z,8.60
2019-05-13T04:13:06.336Z,8.71
2019-05-13T04:14:06.338Z,8.75
2019-05-13T04:15:06.312Z,8.88
2019-05-13T04:16:06.324Z,8.97
2019-05-13T04:17:06.317Z,8.93
2019-05-13T04:18:06.283Z,9.01
2019-05-13T04:19:06.288Z,9.10
2019-05-13T04:20:06.260Z,9.13
2019-05-13T04:21:06.240Z,9.28
2019-05-13T04:22:06.231Z,9.45
2019-05-13T04:23:06.228Z,9.42
2019-05-13T04:24:06.241Z,9.49
2019-05-13T04:25:06.222Z,9.57
2019-05-13T04:26:06.201Z,9.61
2019-05-13T04:27:06.190Z,9.68
2019-05-13T04:28:06.172Z,9.79
2019-05-13T04:29:06.182Z,9.93
2019-05-13T04:30:06.158Z,9.85
2019-05-13T04:31:06.142Z,9.89
2019-05-13T04:32:06.136Z,9.96
2019-05-13T04:33:06.125Z,10.01
2019-05-13T04:34:06.110Z,10.12
2019-05-13T04:35:06.102Z,10.21
2019-05-13T04:36:06.089Z,10.17
2019-05-13T04:37:06.082Z,10.18
2019-05-13T04:38:09.191Z,10.33
2019-05-13T04:39:07.062Z,10.42
2019-05-13T04:40:06.042Z,10.32
2019-05-13T04:41:06.023Z,10.40
2019-05-13T04:42:06.024Z,10.56
2019-05-13T04:43:06.020Z,10.60
2019-05-13T04:44:06.044Z,10.86
2019-05-13T04:45:05.997Z,11.01
2019-05-13T04:46:05.976Z,11.02
2019-05-13T04:47:05.965Z,11.20
2019-05-13T04:48:05.966Z,11.41
2019-05-13T04:49:05.960Z,11.44
2019-05-13T04:50:05.932Z,11.74
2019-05-13T04:51:05.937Z,11.86
2019-05-13T04:52:05.915Z,12.08
2019-05-13T04:53:05.906Z,12.27
2019-05-13T04:54:05.908Z,12.39
2019-05-13T04:55:05.873Z,12.49
2019-05-13T04:56:05.869Z,12.74
2019-05-13T04:57:05.854Z,12.87
2019-05-13T04:58:05.862Z,12.97
2019-05-13T04:59:05.838Z,13.18
2019-05-13T05:00:05.816Z,13.40
2019-05-13T05:01:09.053Z,13.69
2019-05-13T05:02:05.807Z,13.89
2019-05-13T05:03:05.792Z,14.06
2019-05-13T05:04:13.872Z,14.13
2019-05-13T05:05:06.766Z,14.42
2019-05-13T05:06:05.745Z,14.62
2019-05-13T05:07:05.741Z,14.74
2019-05-13T05:08:05.725Z,14.93
2019-05-13T05:09:05.747Z,15.05
2019-05-13T05:10:30.414Z,15.13
2019-05-13T05:11:06.700Z,15.38
2019-05-13T05:12:05.689Z,15.67
2019-05-13T05:13:05.675Z,16.00
2019-05-13T05:14:05.674Z,16.31
2019-05-13T05:15:05.672Z,16.52
2019-05-13T05:16:05.656Z,16.58
2019-05-13T05:17:05.638Z,16.62
2019-05-13T05:18:05.618Z,16.70
2019-05-13T05:19:05.603Z,16.78
2019-05-13T05:20:05.624Z,16.86
2019-05-13T05:21:05.589Z,17.03
2019-05-13T05:22:05.593Z,17.22
2019-05-13T05:23:05.566Z,17.35
2019-05-13T05:24:05.564Z,17.35
2019-05-13T05:25:05.538Z,17.38
2019-05-13T05:26:05.543Z,17.43
2019-05-13T05:27:05.524Z,17.55
2019-05-13T05:28:05.502Z,17.55
2019-05-13T05:29:05.501Z,17.70
2019-05-13T05:30:05.497Z,17.88
2019-05-13T05:31:05.491Z,18.00
2019-05-13T05:32:05.458Z,18.18
2019-05-13T05:33:05.466Z,18.17
2019-05-13T05:34:06.752Z,18.28
2019-05-13T05:35:05.435Z,18.34
2019-05-13T05:36:05.419Z,18.47
2019-05-13T05:37:05.428Z,18.59
2019-05-13T05:38:05.398Z,18.70
2019-05-13T05:39:05.392Z,18.87
2019-05-13T05:40:05.375Z,19.01
2019-05-13T05:41:05.367Z,19.01
2019-05-13T05:42:05.352Z,19.01
2019-05-13T05:43:05.368Z,19.11
2019-05-13T05:44:05.332Z,19.21
2019-05-13T05:45:05.321Z,19.39
2019-05-13T05:46:05.307Z,19.47
2019-05-13T05:47:05.306Z,19.54
2019-05-13T05:48:05.316Z,19.69
2019-05-13T05:49:05.272Z,19.87
2019-05-13T05:50:05.262Z,20.18
2019-05-13T05:51:05.241Z,20.25
2019-05-13T05:52:05.246Z,20.35
2019-05-13T05:53:05.237Z,20.41
2019-05-13T05:54:05.264Z,20.33
2019-05-13T05:55:05.221Z,20.59
2019-05-13T05:56:05.204Z,20.83
2019-05-13T05:57:05.188Z,21.20
2019-05-13T05:58:05.179Z,21.45
2019-05-13T05:59:05.171Z,21.60
2019-05-13T06:00:05.159Z,21.78
2019-05-13T06:01:05.146Z,22.02
2019-05-13T06:02:05.147Z,22.13
2019-05-13T06:03:05.121Z,22.31
2019-05-13T06:04:05.122Z,22.57
2019-05-13T06:05:05.128Z,22.90
2019-05-13T06:06:05.104Z,23.14
2019-05-13T06:07:05.103Z,23.47
2019-05-13T06:08:05.077Z,23.70
2019-05-13T06:09:05.049Z,23.75
2019-05-13T06:10:05.067Z,23.79
2019-05-13T06:11:05.052Z,24.01
2019-05-13T06:12:05.022Z,24.50
2019-05-13T06:13:05.018Z,24.79
2019-05-13T06:14:05.013Z,25.05
2019-05-13T06:15:05.007Z,25.30
2019-05-13T06:16:04.995Z,25.68
2019-05-13T06:17:04.966Z,25.86
2019-05-13T06:18:04.959Z,26.08
2019-05-13T06:19:04.948Z,26.02
2019-05-13T06:20:04.972Z,26.08
2019-05-13T06:21:04.916Z,26.18
2019-05-13T06:22:04.907Z,26.44
2019-05-13T06:23:04.910Z,26.67
2019-05-13T06:24:04.911Z,26.67
2019-05-13T06:25:04.906Z,26.74
2019-05-13T06:26:04.897Z,26.95
2019-05-13T06:27:04.864Z,27.14
2019-05-13T06:28:04.851Z,27.28
2019-05-13T06:29:04.845Z,27.43
2019-05-13T06:30:04.837Z,27.69
2019-05-13T06:31:04.807Z,27.79
2019-05-13T06:32:17.562Z,27.82
2019-05-13T06:33:05.804Z,27.94
2019-05-13T06:34:04.930Z,28.01
2019-05-13T06:35:04.875Z,28.19
2019-05-13T06:36:04.799Z,28.36
2019-05-13T06:37:04.773Z,28.56
2019-05-13T06:38:04.748Z,28.56
2019-05-13T06:39:04.747Z,28.62
2019-05-13T06:40:04.732Z,28.66
2019-05-13T06:41:09.246Z,28.75
2019-05-13T06:42:05.725Z,28.95
2019-05-13T06:43:04.685Z,28.97
2019-05-13T06:44:04.680Z,28.95
2019-05-13T06:45:04.682Z,28.96
2019-05-13T06:46:04.658Z,28.62
2019-05-13T06:47:04.647Z,28.60
2019-05-13T06:48:04.640Z,28.47
2019-05-13T06:49:04.631Z,28.50
2019-05-13T06:50:04.615Z,28.59
2019-05-13T06:51:04.609Z,28.53
2019-05-13T06:52:04.592Z,28.54
2019-05-13T06:53:08.143Z,28.72
2019-05-13T06:54:04.557Z,29.03
2019-05-13T06:55:04.559Z,29.15
2019-05-13T06:56:04.552Z,29.22
2019-05-13T06:57:06.010Z,29.26
2019-05-13T06:58:04.541Z,29.31
2019-05-13T06:59:04.520Z,29.26
2019-05-13T07:00:04.524Z,29.11
2019-05-13T07:01:04.633Z,29.13
2019-05-13T07:02:04.488Z,29.16
2019-05-13T07:03:04.462Z,29.08
2019-05-13T07:04:04.452Z,29.10
2019-05-13T07:05:04.477Z,29.15
2019-05-13T07:06:04.456Z,29.13
2019-05-13T07:07:16.206Z,29.19
2019-05-13T07:08:05.419Z,29.34
2019-05-13T07:09:04.413Z,29.33
2019-05-13T07:10:04.402Z,29.45
2019-05-13T07:11:17.555Z,29.49
2019-05-13T07:12:05.388Z,29.43
2019-05-13T07:13:04.359Z,29.38
2019-05-13T07:14:04.352Z,29.29
2019-05-13T07:15:04.340Z,29.45
2019-05-13T07:16:04.355Z,29.79
2019-05-13T07:17:04.336Z,29.86
2019-05-13T07:18:04.319Z,29.93
2019-05-13T07:19:04.313Z,30.03
2019-05-13T07:20:04.300Z,29.92
2019-05-13T07:21:04.292Z,30.15
2019-05-13T07:22:04.284Z,30.30
2019-05-13T07:23:04.286Z,30.53
2019-05-13T07:24:04.268Z,30.74
2019-05-13T07:25:04.242Z,30.61
2019-05-13T07:26:04.277Z,30.36
2019-05-13T07:27:04.218Z,30.33
2019-05-13T07:28:04.217Z,30.26
2019-05-13T07:29:04.747Z,30.53
2019-05-13T07:30:04.209Z,30.72
2019-05-13T07:31:04.213Z,30.98
2019-05-13T07:32:04.177Z,31.18
2019-05-13T07:33:04.165Z,31.18
2019-05-13T07:34:04.154Z,31.30
2019-05-13T07:35:04.522Z,31.42
2019-05-13T07:36:04.148Z,31.45
2019-05-13T07:37:04.125Z,31.68
2019-05-13T07:38:04.117Z,31.73
2019-05-13T07:39:04.100Z,31.76
2019-05-13T07:40:04.087Z,32.14
2019-05-13T07:41:04.099Z,32.13
2019-05-13T07:42:05.824Z,32.02
2019-05-13T07:43:04.077Z,32.32
2019-05-13T07:44:04.057Z,32.51
2019-05-13T07:45:04.034Z,32.51
2019-05-13T07:46:04.038Z,32.44
2019-05-13T07:47:04.026Z,32.51
2019-05-13T07:48:18.362Z,32.39
2019-05-13T07:49:05.014Z,32.36
2019-05-13T07:50:03.985Z,32.36
2019-05-13T07:51:04.781Z,32.47
2019-05-13T07:52:03.989Z,32.14
2019-05-13T07:53:03.963Z,32.24
2019-05-13T07:54:03.951Z,32.48
2019-05-13T07:55:03.946Z,32.66
2019-05-13T07:56:03.935Z,32.98
2019-05-13T07:57:03.943Z,32.98
2019-05-13T07:58:03.904Z,32.80
2019-05-13T07:59:03.916Z,32.79
2019-05-13T08:00:03.883Z,32.77
2019-05-13T08:01:03.889Z,32.76
2019-05-13T08:02:03.972Z,33.03
2019-05-13T08:03:03.868Z,33.33
2019-05-13T08:04:03.855Z,33.34
2019-05-13T08:05:03.839Z,33.22
2019-05-13T08:06:03.822Z,33.14
2019-05-13T08:07:03.833Z,33.39
2019-05-13T08:08:03.805Z,33.48
2019-05-13T08:09:03.802Z,33.51
2019-05-13T08:10:03.842Z,33.70
2019-05-13T08:11:03.779Z,33.15
2019-05-13T08:12:10.254Z,31.13
2019-05-13T08:13:04.769Z,29.04
2019-05-13T08:14:03.798Z,28.80
2019-05-13T08:15:03.769Z,30.05
2019-05-13T08:16:03.929Z,30.68
2019-05-13T08:17:03.722Z,30.75
2019-05-13T08:18:03.705Z,30.00
2019-05-13T08:19:03.700Z,28.80
2019-05-13T08:20:03.684Z,29.28
2019-05-13T08:21:03.689Z,28.26
2019-05-13T08:22:03.684Z,27.05
2019-05-13T08:23:03.675Z,26.99
2019-05-13T08:24:03.663Z,26.25
2019-05-13T08:25:03.674Z,25.32
2019-05-13T08:26:03.632Z,24.52
2019-05-13T08:27:03.636Z,23.79
2019-05-13T08:28:03.627Z,25.01
2019-05-13T08:29:05.938Z,26.55
2019-05-13T08:30:03.585Z,27.67
2019-05-13T08:31:03.578Z,27.05
2019-05-13T08:32:03.578Z,26.62
2019-05-13T08:33:03.564Z,26.02
2019-05-13T08:34:03.569Z,25.49
2019-05-13T08:35:08.833Z,25.77
2019-05-13T08:36:04.532Z,27.17
2019-05-13T08:37:03.547Z,27.38
2019-05-13T08:38:03.496Z,28.53
2019-05-13T08:39:03.488Z,29.20
2019-05-13T08:40:03.489Z,30.30
2019-05-13T08:41:03.491Z,31.13
2019-05-13T08:42:15.651Z,31.54
2019-05-13T08:43:06.791Z,32.03
2019-05-13T08:44:03.447Z,31.48
2019-05-13T08:45:03.437Z,31.48
2019-05-13T08:46:03.443Z,29.86
2019-05-13T08:47:03.641Z,29.29
2019-05-13T08:48:03.403Z,30.27
2019-05-13T08:49:03.957Z,31.11
2019-05-13T08:50:04.470Z,32.17
2019-05-13T08:51:03.543Z,32.61
2019-05-13T08:52:03.385Z,33.34
2019-05-13T08:53:03.354Z,33.97
2019-05-13T08:54:03.355Z,34.09
2019-05-13T08:55:03.336Z,34.27
2019-05-13T08:56:03.325Z,32.86
2019-05-13T08:57:03.428Z,32.58
2019-05-13T08:58:03.320Z,31.68
2019-05-13T08:59:03.304Z,29.92
2019-05-13T09:00:05.469Z,29.11
2019-05-13T09:01:03.266Z,28.19
2019-05-13T09:02:03.598Z,27.57
2019-05-13T09:03:06.178Z,28.75
2019-05-13T09:04:03.255Z,29.56
2019-05-13T09:05:03.243Z,30.53
2019-05-13T09:06:03.261Z,31.27
2019-05-13T09:07:03.240Z,31.99
2019-05-13T09:08:03.216Z,32.62
2019-05-13T09:09:03.183Z,33.22
2019-05-13T09:10:03.177Z,33.58
2019-05-13T09:11:03.194Z,33.73
2019-05-13T09:12:03.176Z,32.58
2019-05-13T09:13:03.161Z,32.84
2019-05-13T09:14:03.148Z,33.01
2019-05-13T09:16:04.118Z,31.64
2019-05-13T09:17:03.139Z,30.57
2019-05-13T09:18:03.117Z,31.18
2019-05-13T09:19:03.980Z,32.05
2019-05-13T09:20:04.085Z,32.74
2019-05-13T09:21:03.079Z,31.12
2019-05-13T09:22:03.524Z,29.33
2019-05-13T09:23:03.059Z,27.86
2019-05-13T09:24:03.051Z,26.81
2019-05-13T09:25:03.045Z,26.57
2019-05-13T09:26:03.023Z,28.22
2019-05-13T09:27:03.043Z,28.63
2019-05-13T09:28:03.035Z,29.40
2019-05-13T09:29:03.000Z,30.26
2019-05-13T09:30:03.037Z,30.75
2019-05-13T09:31:02.985Z,29.03
2019-05-13T09:32:04.107Z,29.34
2019-05-13T09:33:02.971Z,30.00
2019-05-13T09:34:02.959Z,30.43
2019-05-13T09:35:03.253Z,30.61
2019-05-13T09:36:02.924Z,30.89
2019-05-13T09:37:03.242Z,31.20
2019-05-13T09:38:03.411Z,31.02
2019-05-13T09:39:02.904Z,31.64
2019-05-13T09:40:02.891Z,32.11
2019-05-13T09:41:02.876Z,32.29
2019-05-13T09:42:03.168Z,32.44
2019-05-13T09:43:02.885Z,32.76
2019-05-13T09:44:02.876Z,32.99
2019-05-13T09:45:02.840Z,33.26
2019-05-13T09:46:02.847Z,33.13
2019-05-13T09:47:03.039Z,32.47
2019-05-13T09:48:02.818Z,32.76
2019-05-13T09:49:15.054Z,33.11
2019-05-13T09:50:04.603Z,33.74
2019-05-13T09:51:02.816Z,32.30
2019-05-13T09:52:02.788Z,30.76
2019-05-13T09:53:03.269Z,29.60
2019-05-13T09:54:02.744Z,28.31
2019-05-13T09:55:03.235Z,27.66
2019-05-13T09:56:02.773Z,28.13
2019-05-13T09:57:02.729Z,27.94
2019-05-13T09:58:02.744Z,27.06
2019-05-13T09:59:02.701Z,26.49
2019-05-13T10:00:02.703Z,26.21
2019-05-13T10:01:02.720Z,26.91
2019-05-13T10:03:03.681Z,28.58
2019-05-13T10:04:03.250Z,28.19
2019-05-13T10:05:02.638Z,28.97
2019-05-13T10:06:02.838Z,28.63
2019-05-13T10:07:02.830Z,27.71
2019-05-13T10:08:02.682Z,26.72
2019-05-13T10:09:02.681Z,25.72
2019-05-13T10:10:02.598Z,25.09
2019-05-13T10:11:02.589Z,24.27
2019-05-13T10:12:03.492Z,23.34
2019-05-13T10:14:03.542Z,21.99
2019-05-13T10:15:02.616Z,21.44
2019-05-13T10:16:02.532Z,21.04
2019-05-13T10:17:05.971Z,20.81
2019-05-13T10:18:02.531Z,20.72
2019-05-13T10:19:02.857Z,20.86
2019-05-13T10:20:02.477Z,22.65
2019-05-13T10:21:02.481Z,23.23
2019-05-13T10:22:02.473Z,22.52
2019-05-13T10:23:02.473Z,22.29
2019-05-13T10:24:02.443Z,21.94
2019-05-13T10:25:02.815Z,21.76
2019-05-13T10:26:03.449Z,21.51
2019-05-13T10:27:02.745Z,21.21
2019-05-13T10:28:02.407Z,20.95
2019-05-13T10:29:02.398Z,20.81
2019-05-13T10:30:02.399Z,20.96
2019-05-13T10:31:02.646Z,21.02
2019-05-13T10:32:03.329Z,20.77
2019-05-13T10:33:02.919Z,20.65
2019-05-13T10:34:02.717Z,20.74
2019-05-13T10:35:03.205Z,21.29
2019-05-13T10:36:03.529Z,22.99
2019-05-13T10:37:02.732Z,24.53
2019-05-13T10:38:04.417Z,25.68
2019-05-13T10:39:02.279Z,26.42
2019-05-13T10:40:02.659Z,27.29
2019-05-13T10:41:03.240Z,27.89
2019-05-13T10:42:03.672Z,28.32
2019-05-13T10:43:02.283Z,29.04
2019-05-13T10:44:02.960Z,29.47
2019-05-13T10:45:02.670Z,29.79
2019-05-13T10:46:02.956Z,30.19
2019-05-13T10:47:02.638Z,30.21
2019-05-13T10:48:02.939Z,30.43
2019-05-13T10:49:02.183Z,30.52
2019-05-13T10:50:03.013Z,30.71
2019-05-13T10:51:02.496Z,29.94
2019-05-13T10:52:03.206Z,30.09
2019-05-13T10:53:02.689Z,28.56
2019-05-13T10:54:02.144Z,27.51
2019-05-13T10:55:02.201Z,26.47
2019-05-13T10:56:03.298Z,25.71
2019-05-13T10:57:03.897Z,26.37
2019-05-13T10:58:02.528Z,26.31
2019-05-13T10:59:03.005Z,25.74
2019-05-13T11:00:03.348Z,26.40
2019-05-13T11:01:02.832Z,27.33
2019-05-13T11:02:02.400Z,28.28
2019-05-13T11:03:02.040Z,28.95
2019-05-13T11:04:02.629Z,29.49
2019-05-13T11:05:03.165Z,29.70
2019-05-13T11:06:02.009Z,29.96
2019-05-13T11:07:03.067Z,30.05
2019-05-13T11:08:02.162Z,30.29
2019-05-13T11:09:02.206Z,30.23
2019-05-13T11:10:02.279Z,30.38
2019-05-13T11:11:02.169Z,30.93
2019-05-13T11:12:02.272Z,31.58
2019-05-13T11:13:01.939Z,31.73
2019-05-13T11:14:10.147Z,32.03
2019-05-13T11:15:02.932Z,30.11
2019-05-13T11:16:02.461Z,28.69
2019-05-13T11:17:01.901Z,27.80
2019-05-13T11:18:03.043Z,27.42
2019-05-13T11:19:02.811Z,26.27
2019-05-13T11:20:03.387Z,25.61
2019-05-13T11:21:02.223Z,25.16
2019-05-13T11:22:02.758Z,24.52
2019-05-13T11:23:02.459Z,24.00
2019-05-13T11:24:03.318Z,23.72
2019-05-13T11:25:02.677Z,23.45
2019-05-13T11:27:03.096Z,22.72
2019-05-13T11:28:01.841Z,22.44
2019-05-13T11:29:02.795Z,22.20
2019-05-13T11:30:05.491Z,21.99
2019-05-13T11:31:03.405Z,21.54
2019-05-13T11:32:02.733Z,20.89
2019-05-13T11:33:02.384Z,20.53
2019-05-13T11:34:02.185Z,20.30
2019-05-13T11:35:02.096Z,20.09
2019-05-13T11:36:03.231Z,19.94
2019-05-13T11:37:03.719Z,20.08
2019-05-13T11:38:01.774Z,19.86
2019-05-13T11:39:02.976Z,19.88
2019-05-13T11:40:02.758Z,20.00
2019-05-13T11:41:02.360Z,19.79
2019-05-13T11:42:02.285Z,19.86
2019-05-13T11:43:01.851Z,20.08
2019-05-13T11:44:12.904Z,20.74
2019-05-13T11:45:02.605Z,22.46
2019-05-13T11:46:02.420Z,23.04
2019-05-13T11:47:02.424Z,24.12
2019-05-13T11:48:02.342Z,25.06
2019-05-13T11:49:02.461Z,26.08
2019-05-13T11:50:02.494Z,27.04
2019-05-13T11:51:04.072Z,27.51
2019-05-13T11:52:02.666Z,28.25
2019-05-13T11:53:05.951Z,29.01
2019-05-13T11:54:02.750Z,29.31
2019-05-13T11:55:02.502Z,29.75
2019-05-13T11:56:03.557Z,29.78
2019-05-13T11:57:05.782Z,30.15
2019-05-13T11:58:02.907Z,30.47
2019-05-13T11:59:04.211Z,30.31
2019-05-13T12:00:02.615Z,30.37
2019-05-13T12:01:02.679Z,30.75
2019-05-13T12:02:04.486Z,30.98
2019-05-13T12:03:04.198Z,30.99
2019-05-13T12:04:02.736Z,30.96
2019-05-13T12:05:03.791Z,31.15
2019-05-13T12:06:02.218Z,31.42
2019-05-13T12:07:03.498Z,31.60
2019-05-13T12:08:01.383Z,30.59
2019-05-13T12:09:03.126Z,30.86
2019-05-13T12:10:02.691Z,29.08
2019-05-13T12:11:04.240Z,27.02
2019-05-13T12:12:03.256Z,25.56
2019-05-13T12:13:01.323Z,26.47
2019-05-13T12:14:01.317Z,27.36
2019-05-13T12:15:28.089Z,28.43
2019-05-13T12:16:03.804Z,29.25
2019-05-13T12:17:02.300Z,29.04
2019-05-13T12:18:02.898Z,29.31
2019-05-13T12:19:03.538Z,29.79
2019-05-13T12:20:03.104Z,29.87
2019-05-13T12:21:03.368Z,30.21
2019-05-13T12:22:02.638Z,29.04
2019-05-13T12:23:03.420Z,27.73
2019-05-13T12:24:09.474Z,26.54
2019-05-13T12:25:02.333Z,27.17
2019-05-13T12:26:04.130Z,28.13
2019-05-13T12:27:03.639Z,28.70
2019-05-13T12:28:03.387Z,29.15
2019-05-13T12:29:02.722Z,29.31
2019-05-13T12:30:03.072Z,29.08
2019-05-13T12:31:03.270Z,28.80
2019-05-13T12:32:03.371Z,28.21
2019-05-13T12:33:03.191Z,27.99
2019-05-13T12:34:03.619Z,26.61
2019-05-13T12:35:03.475Z,25.54
2019-05-13T12:36:01.999Z,24.87
2019-05-13T12:37:03.211Z,24.69
2019-05-13T12:38:01.064Z,24.16
2019-05-13T12:39:01.063Z,23.19
2019-05-13T12:40:03.210Z,22.31
2019-05-13T12:41:05.304Z,21.24
2019-05-13T12:42:03.338Z,20.62
2019-05-13T12:43:01.964Z,20.16
2019-05-13T12:44:01.811Z,19.86
2019-05-13T12:45:09.308Z,19.48
2019-05-13T12:46:02.465Z,19.13
2019-05-13T12:47:03.274Z,18.98
2019-05-13T12:48:03.310Z,19.08
2019-05-13T12:49:03.255Z,19.24
2019-05-13T12:50:03.172Z,19.39
2019-05-13T12:51:03.137Z,19.35
2019-05-13T12:52:04.372Z,19.33
2019-05-13T12:53:02.705Z,19.38
2019-05-13T12:54:03.726Z,19.42
2019-05-13T12:55:03.264Z,19.46
2019-05-13T12:56:03.294Z,19.53
2019-05-13T12:57:03.686Z,19.61
2019-05-13T12:58:02.752Z,19.73
2019-05-13T12:59:02.998Z,19.78
2019-05-13T13:00:02.401Z,19.78
2019-05-13T13:01:01.483Z,19.80
2019-05-13T13:02:03.321Z,19.78
2019-05-13T13:03:02.034Z,19.54
2019-05-13T13:04:02.211Z,19.21
2019-05-13T13:05:14.159Z,18.91